PWSweather.com
Personal Weather Stations
Station Observations
KIMITO
Ängskulla, KimitoFI 25700

ÄngskullaKimitoFI 25700

Lat: 60.174645, Lon: 22.726327

Elevation: 36

Station Type: Davis Vantage VUE

www.pvuorio.net

High Low Average
Temperature 36.4°F2.4°C 25.7°F-3.5°C 32.4°F0.2°C
Dew Point 34.8°F1.6°C 25.0°F-3.9°C 31.4°F-0.3°C
Winds 3.4 mph 5.5 kmh Calm Calm 1.0 mph SSE1.6 kmh SSE
Wind Gusts 8.0 mph12.9 kmh -- 1.0 mph1.6 kmh
Humidity 98% 92% 96%
Pressure 29.77 in1008.1 mb 29.61 in1002.7 mb -
Precipitation 0.00 in0.0 mm - -
Hour Temp Dew Point Humidity Winds Wind Gusts Pressure Precip Precip Rate Daily Precip Total
12:01 AM 33.0°F0.6°C 32.0°F0.0°C 96% 1.1 mph SE1.8 kmh SE 1.1 mph1.8 kmh 29.61 in1002.7 mb - 0.00 in0.0 mm 0.00 in0.0 mm
12:07 AM 33.3°F0.7°C 32.3°F0.2°C 96% 1.1 mph S1.8 kmh S 2.3 mph3.7 kmh 29.62 in1003.0 mb - 0.00 in0.0 mm 0.00 in0.0 mm
12:13 AM 33.5°F0.8°C 32.5°F0.3°C 96% Calm Calm 2.3 mph3.7 kmh 29.62 in1003.0 mb - 0.00 in0.0 mm 0.00 in0.0 mm
12:18 AM 33.5°F0.8°C 32.5°F0.3°C 96% Calm Calm 2.3 mph3.7 kmh 29.62 in1003.0 mb - 0.00 in0.0 mm 0.00 in0.0 mm
12:24 AM 33.5°F0.8°C 32.5°F0.3°C 96% Calm Calm -- 29.62 in1003.0 mb - 0.00 in0.0 mm 0.00 in0.0 mm
12:30 AM 33.1°F0.6°C 31.8°F-0.1°C 95% Calm Calm -- 29.62 in1003.0 mb - 0.00 in0.0 mm 0.00 in0.0 mm
12:35 AM 33.1°F0.6°C 32.1°F0.1°C 96% Calm Calm 1.1 mph1.8 kmh 29.62 in1003.0 mb - 0.00 in0.0 mm 0.00 in0.0 mm
12:41 AM 32.7°F0.4°C 31.7°F-0.2°C 96% Calm Calm -- 29.63 in1003.4 mb - 0.00 in0.0 mm 0.00 in0.0 mm
12:46 AM 32.5°F0.3°C 31.5°F-0.3°C 96% Calm Calm -- 29.63 in1003.4 mb - 0.00 in0.0 mm 0.00 in0.0 mm
12:52 AM 32.2°F0.1°C 31.2°F-0.4°C 96% Calm Calm -- 29.63 in1003.4 mb - 0.00 in0.0 mm 0.00 in0.0 mm
12:58 AM 32.1°F0.1°C 31.1°F-0.5°C 96% Calm Calm -- 29.63 in1003.4 mb - 0.00 in0.0 mm 0.00 in0.0 mm
01:03 AM 32.1°F0.1°C 31.1°F-0.5°C 96% Calm Calm -- 29.64 in1003.7 mb - 0.00 in0.0 mm 0.00 in0.0 mm
01:09 AM 32.0°F0.0°C 31.0°F-0.6°C 96% Calm Calm -- 29.64 in1003.7 mb - 0.00 in0.0 mm 0.00 in0.0 mm
01:15 AM 31.6°F-0.2°C 30.6°F-0.8°C 96% Calm Calm -- 29.63 in1003.4 mb - 0.00 in0.0 mm 0.00 in0.0 mm
01:20 AM 31.3°F-0.4°C 30.3°F-0.9°C 96% Calm Calm -- 29.63 in1003.4 mb - 0.00 in0.0 mm 0.00 in0.0 mm
01:26 AM 31.1°F-0.5°C 30.1°F-1.1°C 96% Calm Calm -- 29.63 in1003.4 mb - 0.00 in0.0 mm 0.00 in0.0 mm
01:31 AM 31.0°F-0.6°C 30.2°F-1.0°C 97% Calm Calm -- 29.64 in1003.7 mb - 0.00 in0.0 mm 0.00 in0.0 mm
01:37 AM 31.0°F-0.6°C 30.2°F-1.0°C 97% Calm Calm -- 29.64 in1003.7 mb - 0.00 in0.0 mm 0.00 in0.0 mm
01:43 AM 30.7°F-0.7°C 29.9°F-1.2°C 97% Calm Calm -- 29.64 in1003.7 mb - 0.00 in0.0 mm 0.00 in0.0 mm
01:48 AM 30.5°F-0.8°C 29.8°F-1.2°C 97% Calm Calm -- 29.64 in1003.7 mb - 0.00 in0.0 mm 0.00 in0.0 mm
01:54 AM 30.4°F-0.9°C 29.7°F-1.3°C 97% Calm Calm -- 29.64 in1003.7 mb - 0.00 in0.0 mm 0.00 in0.0 mm
02:00 AM 30.2°F-1.0°C 29.5°F-1.4°C 97% Calm Calm -- 29.64 in1003.7 mb - 0.00 in0.0 mm 0.00 in0.0 mm
02:05 AM 30.0°F-1.1°C 29.3°F-1.5°C 97% Calm Calm -- 29.64 in1003.7 mb - 0.00 in0.0 mm 0.00 in0.0 mm
02:11 AM 29.9°F-1.2°C 29.2°F-1.6°C 97% Calm Calm -- 29.64 in1003.7 mb - 0.00 in0.0 mm 0.00 in0.0 mm
02:16 AM 29.9°F-1.2°C 29.1°F-1.6°C 97% Calm Calm -- 29.64 in1003.7 mb - 0.00 in0.0 mm 0.00 in0.0 mm
02:22 AM 29.6°F-1.3°C 28.9°F-1.7°C 97% Calm Calm -- 29.64 in1003.7 mb - 0.00 in0.0 mm 0.00 in0.0 mm
02:28 AM 29.5°F-1.4°C 28.7°F-1.8°C 97% Calm Calm -- 29.64 in1003.7 mb - 0.00 in0.0 mm 0.00 in0.0 mm
02:33 AM 29.0°F-1.7°C 28.3°F-2.1°C 97% Calm Calm -- 29.64 in1003.7 mb - 0.00 in0.0 mm 0.00 in0.0 mm
02:39 AM 28.7°F-1.8°C 28.0°F-2.2°C 97% Calm Calm -- 29.64 in1003.7 mb - 0.00 in0.0 mm 0.00 in0.0 mm
02:45 AM 28.4°F-2.0°C 27.7°F-2.4°C 97% Calm Calm -- 29.64 in1003.7 mb - 0.00 in0.0 mm 0.00 in0.0 mm
02:50 AM 28.4°F-2.0°C 27.7°F-2.4°C 97% Calm Calm -- 29.64 in1003.7 mb - 0.00 in0.0 mm 0.00 in0.0 mm
02:56 AM 28.2°F-2.1°C 27.4°F-2.6°C 97% Calm Calm -- 29.64 in1003.7 mb - 0.00 in0.0 mm 0.00 in0.0 mm
03:01 AM 28.0°F-2.2°C 27.3°F-2.6°C 97% Calm Calm -- 29.64 in1003.7 mb - 0.00 in0.0 mm 0.00 in0.0 mm
03:07 AM 27.5°F-2.5°C 26.8°F-2.9°C 97% Calm Calm -- 29.64 in1003.7 mb - 0.00 in0.0 mm 0.00 in0.0 mm
03:13 AM 27.5°F-2.5°C 26.7°F-2.9°C 97% Calm Calm -- 29.64 in1003.7 mb - 0.00 in0.0 mm 0.00 in0.0 mm
03:18 AM 27.1°F-2.7°C 26.3°F-3.2°C 97% Calm Calm -- 29.64 in1003.7 mb - 0.00 in0.0 mm 0.00 in0.0 mm
03:24 AM 26.7°F-2.9°C 26.0°F-3.3°C 97% Calm Calm -- 29.63 in1003.4 mb - 0.00 in0.0 mm 0.00 in0.0 mm
03:30 AM 26.6°F-3.0°C 25.9°F-3.4°C 97% Calm Calm -- 29.64 in1003.7 mb - 0.00 in0.0 mm 0.00 in0.0 mm
03:35 AM 26.7°F-2.9°C 26.0°F-3.3°C 97% Calm Calm -- 29.64 in1003.7 mb - 0.00 in0.0 mm 0.00 in0.0 mm
03:41 AM 26.3°F-3.2°C 25.5°F-3.6°C 97% Calm Calm -- 29.64 in1003.7 mb - 0.00 in0.0 mm 0.00 in0.0 mm
03:46 AM 26.2°F-3.2°C 25.5°F-3.6°C 97% Calm Calm -- 29.64 in1003.7 mb - 0.00 in0.0 mm 0.00 in0.0 mm
03:52 AM 27.2°F-2.7°C 26.7°F-2.9°C 98% Calm Calm -- 29.64 in1003.7 mb - 0.00 in0.0 mm 0.00 in0.0 mm
03:58 AM 27.2°F-2.7°C 26.8°F-2.9°C 98% Calm Calm -- 29.64 in1003.7 mb - 0.00 in0.0 mm 0.00 in0.0 mm
04:03 AM 26.7°F-2.9°C 26.3°F-3.2°C 98% Calm Calm -- 29.64 in1003.7 mb - 0.00 in0.0 mm 0.00 in0.0 mm
04:09 AM 26.4°F-3.1°C 25.6°F-3.6°C 97% Calm Calm -- 29.64 in1003.7 mb - 0.00 in0.0 mm 0.00 in0.0 mm
04:15 AM 26.7°F-2.9°C 26.2°F-3.2°C 98% Calm Calm -- 29.64 in1003.7 mb - 0.00 in0.0 mm 0.00 in0.0 mm
04:20 AM 26.9°F-2.8°C 26.4°F-3.1°C 98% Calm Calm -- 29.64 in1003.7 mb - 0.00 in0.0 mm 0.00 in0.0 mm
04:26 AM 26.7°F-2.9°C 26.2°F-3.2°C 98% Calm Calm -- 29.65 in1004.1 mb - 0.00 in0.0 mm 0.00 in0.0 mm
04:31 AM 26.3°F-3.2°C 25.8°F-3.4°C 98% Calm Calm -- 29.65 in1004.1 mb - 0.00 in0.0 mm 0.00 in0.0 mm
04:37 AM 25.7°F-3.5°C 25.0°F-3.9°C 97% Calm Calm -- 29.64 in1003.7 mb - 0.00 in0.0 mm 0.00 in0.0 mm
04:43 AM 25.7°F-3.5°C 25.0°F-3.9°C 97% Calm Calm -- 29.64 in1003.7 mb - 0.00 in0.0 mm 0.00 in0.0 mm
04:48 AM 25.9°F-3.4°C 25.4°F-3.7°C 98% Calm Calm -- 29.64 in1003.7 mb - 0.00 in0.0 mm 0.00 in0.0 mm
04:54 AM 26.0°F-3.3°C 25.5°F-3.6°C 98% Calm Calm -- 29.64 in1003.7 mb - 0.00 in0.0 mm 0.00 in0.0 mm
05:00 AM 26.1°F-3.3°C 25.6°F-3.6°C 98% Calm Calm 1.1 mph1.8 kmh 29.64 in1003.7 mb - 0.00 in0.0 mm 0.00 in0.0 mm
05:05 AM 26.6°F-3.0°C 26.1°F-3.3°C 98% Calm Calm -- 29.64 in1003.7 mb - 0.00 in0.0 mm 0.00 in0.0 mm
05:11 AM 26.6°F-3.0°C 26.1°F-3.3°C 98% Calm Calm 1.1 mph1.8 kmh 29.64 in1003.7 mb - 0.00 in0.0 mm 0.00 in0.0 mm
05:16 AM 26.6°F-3.0°C 26.1°F-3.3°C 98% Calm Calm -- 29.64 in1003.7 mb - 0.00 in0.0 mm 0.00 in0.0 mm
05:22 AM 27.2°F-2.7°C 26.7°F-2.9°C 98% Calm Calm -- 29.64 in1003.7 mb - 0.00 in0.0 mm 0.00 in0.0 mm
05:28 AM 27.5°F-2.5°C 27.0°F-2.8°C 98% Calm Calm 1.1 mph1.8 kmh 29.64 in1003.7 mb - 0.00 in0.0 mm 0.00 in0.0 mm
05:33 AM 28.0°F-2.2°C 27.5°F-2.5°C 98% Calm Calm 1.1 mph1.8 kmh 29.64 in1003.7 mb - 0.00 in0.0 mm 0.00 in0.0 mm
05:39 AM 28.5°F-1.9°C 28.0°F-2.2°C 98% Calm Calm -- 29.64 in1003.7 mb - 0.00 in0.0 mm 0.00 in0.0 mm
05:45 AM 28.7°F-1.8°C 28.2°F-2.1°C 98% Calm Calm -- 29.64 in1003.7 mb - 0.00 in0.0 mm 0.00 in0.0 mm
05:50 AM 28.6°F-1.9°C 28.1°F-2.2°C 98% Calm Calm -- 29.64 in1003.7 mb - 0.00 in0.0 mm 0.00 in0.0 mm
05:56 AM 28.3°F-2.1°C 27.8°F-2.3°C 98% Calm Calm -- 29.64 in1003.7 mb - 0.00 in0.0 mm 0.00 in0.0 mm
06:01 AM 27.9°F-2.3°C 27.4°F-2.6°C 98% Calm Calm -- 29.64 in1003.7 mb - 0.00 in0.0 mm 0.00 in0.0 mm
06:07 AM 27.7°F-2.4°C 27.2°F-2.7°C 98% Calm Calm -- 29.64 in1003.7 mb - 0.00 in0.0 mm 0.00 in0.0 mm
06:13 AM 27.4°F-2.6°C 26.9°F-2.8°C 98% Calm Calm -- 29.64 in1003.7 mb - 0.00 in0.0 mm 0.00 in0.0 mm
06:18 AM 26.9°F-2.8°C 26.4°F-3.1°C 98% Calm Calm -- 29.64 in1003.7 mb - 0.00 in0.0 mm 0.00 in0.0 mm
06:24 AM 26.8°F-2.9°C 26.3°F-3.2°C 98% Calm Calm -- 29.64 in1003.7 mb - 0.00 in0.0 mm 0.00 in0.0 mm
06:30 AM 27.2°F-2.7°C 26.8°F-2.9°C 98% Calm Calm 1.1 mph1.8 kmh 29.65 in1004.1 mb - 0.00 in0.0 mm 0.00 in0.0 mm
06:35 AM 28.0°F-2.2°C 27.5°F-2.5°C 98% Calm Calm -- 29.65 in1004.1 mb - 0.00 in0.0 mm 0.00 in0.0 mm
06:41 AM 28.4°F-2.0°C 27.9°F-2.3°C 98% Calm Calm -- 29.65 in1004.1 mb - 0.00 in0.0 mm 0.00 in0.0 mm
06:46 AM 28.3°F-2.1°C 27.9°F-2.3°C 98% Calm Calm -- 29.65 in1004.1 mb - 0.00 in0.0 mm 0.00 in0.0 mm
06:52 AM 28.2°F-2.1°C 27.7°F-2.4°C 98% Calm Calm -- 29.65 in1004.1 mb - 0.00 in0.0 mm 0.00 in0.0 mm
06:58 AM 27.8°F-2.3°C 27.3°F-2.6°C 98% Calm Calm -- 29.65 in1004.1 mb - 0.00 in0.0 mm 0.00 in0.0 mm
07:03 AM 28.0°F-2.2°C 27.5°F-2.5°C 98% Calm Calm -- 29.65 in1004.1 mb - 0.00 in0.0 mm 0.00 in0.0 mm
07:09 AM 28.0°F-2.2°C 27.5°F-2.5°C 98% Calm Calm -- 29.65 in1004.1 mb - 0.00 in0.0 mm 0.00 in0.0 mm
07:15 AM 28.5°F-1.9°C 28.0°F-2.2°C 98% Calm Calm 1.1 mph1.8 kmh 29.65 in1004.1 mb - 0.00 in0.0 mm 0.00 in0.0 mm
07:20 AM 28.5°F-1.9°C 28.0°F-2.2°C 98% Calm Calm 1.1 mph1.8 kmh 29.65 in1004.1 mb - 0.00 in0.0 mm 0.00 in0.0 mm
07:26 AM 29.4°F-1.4°C 28.9°F-1.7°C 98% Calm Calm 1.1 mph1.8 kmh 29.65 in1004.1 mb - 0.00 in0.0 mm 0.00 in0.0 mm
07:31 AM 29.8°F-1.2°C 29.3°F-1.5°C 98% Calm Calm -- 29.65 in1004.1 mb - 0.00 in0.0 mm 0.00 in0.0 mm
07:37 AM 30.2°F-1.0°C 29.7°F-1.3°C 98% Calm Calm -- 29.65 in1004.1 mb - 0.00 in0.0 mm 0.00 in0.0 mm
07:43 AM 30.2°F-1.0°C 29.7°F-1.3°C 98% Calm Calm -- 29.65 in1004.1 mb - 0.00 in0.0 mm 0.00 in0.0 mm
07:48 AM 30.4°F-0.9°C 29.9°F-1.2°C 98% Calm Calm 1.1 mph1.8 kmh 29.66 in1004.4 mb - 0.00 in0.0 mm 0.00 in0.0 mm
07:54 AM 30.7°F-0.7°C 30.2°F-1.0°C 98% Calm Calm -- 29.66 in1004.4 mb - 0.00 in0.0 mm 0.00 in0.0 mm
08:00 AM 31.2°F-0.4°C 30.7°F-0.7°C 98% Calm Calm 1.1 mph1.8 kmh 29.66 in1004.4 mb - 0.00 in0.0 mm 0.00 in0.0 mm
08:05 AM 31.1°F-0.5°C 30.6°F-0.8°C 98% Calm Calm -- 29.66 in1004.4 mb - 0.00 in0.0 mm 0.00 in0.0 mm
08:11 AM 31.4°F-0.3°C 30.9°F-0.6°C 98% 1.1 mph SE1.8 kmh SE 3.4 mph5.5 kmh 29.66 in1004.4 mb - 0.00 in0.0 mm 0.00 in0.0 mm
08:16 AM 31.8°F-0.1°C 31.3°F-0.4°C 98% Calm Calm 1.1 mph1.8 kmh 29.66 in1004.4 mb - 0.00 in0.0 mm 0.00 in0.0 mm
08:22 AM 31.6°F-0.2°C 31.1°F-0.5°C 98% Calm Calm -- 29.66 in1004.4 mb - 0.00 in0.0 mm 0.00 in0.0 mm
08:28 AM 31.3°F-0.4°C 30.8°F-0.7°C 98% Calm Calm -- 29.66 in1004.4 mb - 0.00 in0.0 mm 0.00 in0.0 mm
08:33 AM 32.3°F0.2°C 31.8°F-0.1°C 98% 1.1 mph SSE1.8 kmh SSE 2.3 mph3.7 kmh 29.66 in1004.4 mb - 0.00 in0.0 mm 0.00 in0.0 mm
08:39 AM 32.4°F0.2°C 31.9°F-0.1°C 98% 1.1 mph W1.8 kmh W 1.1 mph1.8 kmh 29.66 in1004.4 mb - 0.00 in0.0 mm 0.00 in0.0 mm
08:45 AM 32.4°F0.2°C 31.9°F-0.1°C 98% 1.1 mph S1.8 kmh S 2.3 mph3.7 kmh 29.66 in1004.4 mb - 0.00 in0.0 mm 0.00 in0.0 mm
08:50 AM 32.8°F0.4°C 32.3°F0.2°C 98% Calm Calm 1.1 mph1.8 kmh 29.66 in1004.4 mb - 0.00 in0.0 mm 0.00 in0.0 mm
08:56 AM 32.7°F0.4°C 32.2°F0.1°C 98% 1.1 mph E1.8 kmh E 2.3 mph3.7 kmh 29.67 in1004.7 mb - 0.00 in0.0 mm 0.00 in0.0 mm
09:01 AM 32.8°F0.4°C 32.3°F0.2°C 98% Calm Calm 1.1 mph1.8 kmh 29.67 in1004.7 mb - 0.00 in0.0 mm 0.00 in0.0 mm
09:07 AM 32.3°F0.2°C 31.8°F-0.1°C 98% Calm Calm -- 29.68 in1005.1 mb - 0.00 in0.0 mm 0.00 in0.0 mm
09:13 AM 32.1°F0.1°C 31.6°F-0.2°C 98% Calm Calm -- 29.68 in1005.1 mb - 0.00 in0.0 mm 0.00 in0.0 mm
09:18 AM 32.1°F0.1°C 31.6°F-0.2°C 98% 1.1 mph SE1.8 kmh SE 2.3 mph3.7 kmh 29.67 in1004.7 mb - 0.00 in0.0 mm 0.00 in0.0 mm
09:24 AM 32.4°F0.2°C 31.9°F-0.1°C 98% Calm Calm -- 29.68 in1005.1 mb - 0.00 in0.0 mm 0.00 in0.0 mm
09:30 AM 32.8°F0.4°C 32.3°F0.2°C 98% 2.3 mph SSW3.7 kmh SSW 3.4 mph5.5 kmh 29.68 in1005.1 mb - 0.00 in0.0 mm 0.00 in0.0 mm
09:35 AM 32.9°F0.5°C 32.4°F0.2°C 98% 1.1 mph SSE1.8 kmh SSE 2.3 mph3.7 kmh 29.68 in1005.1 mb - 0.00 in0.0 mm 0.00 in0.0 mm
09:41 AM 33.0°F0.6°C 32.5°F0.3°C 98% 1.1 mph SE1.8 kmh SE 1.1 mph1.8 kmh 29.68 in1005.1 mb - 0.00 in0.0 mm 0.00 in0.0 mm
09:46 AM 33.2°F0.7°C 32.7°F0.4°C 98% 2.3 mph SE3.7 kmh SE 4.6 mph7.4 kmh 29.68 in1005.1 mb - 0.00 in0.0 mm 0.00 in0.0 mm
09:52 AM 33.2°F0.7°C 32.7°F0.4°C 98% 2.3 mph NE3.7 kmh NE 3.4 mph5.5 kmh 29.68 in1005.1 mb - 0.00 in0.0 mm 0.00 in0.0 mm
09:58 AM 33.5°F0.8°C 32.9°F0.5°C 98% Calm Calm 2.3 mph3.7 kmh 29.69 in1005.4 mb - 0.00 in0.0 mm 0.00 in0.0 mm
10:03 AM 33.4°F0.8°C 32.9°F0.5°C 98% 1.1 mph SSE1.8 kmh SSE 3.4 mph5.5 kmh 29.69 in1005.4 mb - 0.00 in0.0 mm 0.00 in0.0 mm
10:09 AM 33.3°F0.7°C 32.8°F0.4°C 98% Calm Calm 2.3 mph3.7 kmh 29.69 in1005.4 mb - 0.00 in0.0 mm 0.00 in0.0 mm
10:15 AM 33.1°F0.6°C 32.6°F0.3°C 98% Calm Calm 2.3 mph3.7 kmh 29.69 in1005.4 mb - 0.00 in0.0 mm 0.00 in0.0 mm
10:20 AM 33.1°F0.6°C 32.6°F0.3°C 98% 1.1 mph S1.8 kmh S 3.4 mph5.5 kmh 29.69 in1005.4 mb - 0.00 in0.0 mm 0.00 in0.0 mm
10:26 AM 32.9°F0.5°C 32.4°F0.2°C 98% 1.1 mph SE1.8 kmh SE 2.3 mph3.7 kmh 29.69 in1005.4 mb - 0.00 in0.0 mm 0.00 in0.0 mm
10:31 AM 32.9°F0.5°C 32.4°F0.2°C 98% 1.1 mph SE1.8 kmh SE 1.1 mph1.8 kmh 29.69 in1005.4 mb - 0.00 in0.0 mm 0.00 in0.0 mm
10:37 AM 33.1°F0.6°C 32.6°F0.3°C 98% 1.1 mph E1.8 kmh E 3.4 mph5.5 kmh 29.69 in1005.4 mb - 0.00 in0.0 mm 0.00 in0.0 mm
10:43 AM 33.1°F0.6°C 32.6°F0.3°C 98% Calm Calm 1.1 mph1.8 kmh 29.69 in1005.4 mb - 0.00 in0.0 mm 0.00 in0.0 mm
10:48 AM 32.9°F0.5°C 32.2°F0.1°C 97% 1.1 mph SE1.8 kmh SE 3.4 mph5.5 kmh 29.69 in1005.4 mb - 0.00 in0.0 mm 0.00 in0.0 mm
10:54 AM 33.1°F0.6°C 32.3°F0.2°C 97% 1.1 mph SSE1.8 kmh SSE 1.1 mph1.8 kmh 29.69 in1005.4 mb - 0.00 in0.0 mm 0.00 in0.0 mm
11:00 AM 33.0°F0.6°C 32.3°F0.2°C 97% Calm Calm 2.3 mph3.7 kmh 29.69 in1005.4 mb - 0.00 in0.0 mm 0.00 in0.0 mm
11:05 AM 33.0°F0.6°C 32.3°F0.2°C 97% 1.1 mph ESE1.8 kmh ESE 2.3 mph3.7 kmh 29.69 in1005.4 mb - 0.00 in0.0 mm 0.00 in0.0 mm
11:11 AM 33.4°F0.8°C 32.6°F0.3°C 97% Calm Calm 1.1 mph1.8 kmh 29.70 in1005.8 mb - 0.00 in0.0 mm 0.00 in0.0 mm
11:16 AM 33.5°F0.8°C 32.7°F0.4°C 97% 1.1 mph SSE1.8 kmh SSE 2.3 mph3.7 kmh 29.70 in1005.8 mb - 0.00 in0.0 mm 0.00 in0.0 mm
11:22 AM 33.7°F0.9°C 32.9°F0.5°C 97% 1.1 mph SE1.8 kmh SE 2.3 mph3.7 kmh 29.70 in1005.8 mb - 0.00 in0.0 mm 0.00 in0.0 mm
11:28 AM 33.8°F1.0°C 33.0°F0.6°C 97% Calm Calm 1.1 mph1.8 kmh 29.70 in1005.8 mb - 0.00 in0.0 mm 0.00 in0.0 mm
11:33 AM 33.7°F0.9°C 32.9°F0.5°C 97% Calm Calm -- 29.70 in1005.8 mb - 0.00 in0.0 mm 0.00 in0.0 mm
11:39 AM 33.7°F0.9°C 32.9°F0.5°C 97% Calm Calm 2.3 mph3.7 kmh 29.70 in1005.8 mb - 0.00 in0.0 mm 0.00 in0.0 mm
11:45 AM 34.0°F1.1°C 33.2°F0.7°C 97% Calm Calm 1.1 mph1.8 kmh 29.70 in1005.8 mb - 0.00 in0.0 mm 0.00 in0.0 mm
11:50 AM 34.2°F1.2°C 33.4°F0.8°C 97% Calm Calm 1.1 mph1.8 kmh 29.71 in1006.1 mb - 0.00 in0.0 mm 0.00 in0.0 mm
11:56 AM 34.5°F1.4°C 33.5°F0.8°C 96% 1.1 mph SE1.8 kmh SE 2.3 mph3.7 kmh 29.71 in1006.1 mb - 0.00 in0.0 mm 0.00 in0.0 mm
12:01 PM 34.7°F1.5°C 33.7°F0.9°C 96% 2.3 mph SSE3.7 kmh SSE 2.3 mph3.7 kmh 29.71 in1006.1 mb - 0.00 in0.0 mm 0.00 in0.0 mm
12:07 PM 34.9°F1.6°C 33.6°F0.9°C 95% 1.1 mph NNE1.8 kmh NNE 3.4 mph5.5 kmh 29.71 in1006.1 mb - 0.00 in0.0 mm 0.00 in0.0 mm
12:13 PM 34.9°F1.6°C 33.6°F0.9°C 95% 2.3 mph N3.7 kmh N 3.4 mph5.5 kmh 29.71 in1006.1 mb - 0.00 in0.0 mm 0.00 in0.0 mm
12:18 PM 35.0°F1.7°C 33.7°F0.9°C 95% 1.1 mph ESE1.8 kmh ESE 2.3 mph3.7 kmh 29.71 in1006.1 mb - 0.00 in0.0 mm 0.00 in0.0 mm
12:24 PM 35.2°F1.8°C 33.6°F0.9°C 94% 1.1 mph NE1.8 kmh NE 3.4 mph5.5 kmh 29.72 in1006.4 mb - 0.00 in0.0 mm 0.00 in0.0 mm
12:30 PM 35.1°F1.7°C 33.5°F0.8°C 94% Calm Calm -- 29.72 in1006.4 mb - 0.00 in0.0 mm 0.00 in0.0 mm
12:35 PM 35.0°F1.7°C 33.4°F0.8°C 94% 1.1 mph NW1.8 kmh NW 1.1 mph1.8 kmh 29.72 in1006.4 mb - 0.00 in0.0 mm 0.00 in0.0 mm
12:41 PM 35.2°F1.8°C 33.7°F0.9°C 94% Calm Calm 1.1 mph1.8 kmh 29.72 in1006.4 mb - 0.00 in0.0 mm 0.00 in0.0 mm
12:46 PM 35.2°F1.8°C 33.4°F0.8°C 93% 1.1 mph NE1.8 kmh NE 3.4 mph5.5 kmh 29.71 in1006.1 mb - 0.00 in0.0 mm 0.00 in0.0 mm
12:52 PM 35.2°F1.8°C 33.4°F0.8°C 93% Calm Calm 1.1 mph1.8 kmh 29.71 in1006.1 mb - 0.00 in0.0 mm 0.00 in0.0 mm
12:58 PM 35.2°F1.8°C 33.4°F0.8°C 93% Calm Calm 2.3 mph3.7 kmh 29.71 in1006.1 mb - 0.00 in0.0 mm 0.00 in0.0 mm
01:03 PM 35.0°F1.7°C 33.2°F0.7°C 93% 1.1 mph SSE1.8 kmh SSE 2.3 mph3.7 kmh 29.71 in1006.1 mb - 0.00 in0.0 mm 0.00 in0.0 mm
01:09 PM 35.0°F1.7°C 33.2°F0.7°C 93% 1.1 mph SE1.8 kmh SE 2.3 mph3.7 kmh 29.71 in1006.1 mb - 0.00 in0.0 mm 0.00 in0.0 mm
01:15 PM 35.1°F1.7°C 33.3°F0.7°C 93% Calm Calm -- 29.72 in1006.4 mb - 0.00 in0.0 mm 0.00 in0.0 mm
01:20 PM 35.0°F1.7°C 33.2°F0.7°C 93% Calm Calm 1.1 mph1.8 kmh 29.72 in1006.4 mb - 0.00 in0.0 mm 0.00 in0.0 mm
01:26 PM 35.0°F1.7°C 33.2°F0.7°C 93% 1.1 mph E1.8 kmh E 1.1 mph1.8 kmh 29.72 in1006.4 mb - 0.00 in0.0 mm 0.00 in0.0 mm
01:31 PM 34.8°F1.6°C 33.0°F0.6°C 93% Calm Calm 1.1 mph1.8 kmh 29.72 in1006.4 mb - 0.00 in0.0 mm 0.00 in0.0 mm
01:37 PM 34.8°F1.6°C 33.0°F0.6°C 93% 1.1 mph SW1.8 kmh SW 1.1 mph1.8 kmh 29.72 in1006.4 mb - 0.00 in0.0 mm 0.00 in0.0 mm
01:43 PM 34.8°F1.6°C 33.0°F0.6°C 93% Calm Calm -- 29.73 in1006.8 mb - 0.00 in0.0 mm 0.00 in0.0 mm
01:48 PM 34.7°F1.5°C 32.9°F0.5°C 93% 1.1 mph SE1.8 kmh SE 2.3 mph3.7 kmh 29.72 in1006.4 mb - 0.00 in0.0 mm 0.00 in0.0 mm
01:54 PM 34.7°F1.5°C 32.9°F0.5°C 93% 1.1 mph WSW1.8 kmh WSW 2.3 mph3.7 kmh 29.72 in1006.4 mb - 0.00 in0.0 mm 0.00 in0.0 mm
02:00 PM 34.8°F1.6°C 33.0°F0.6°C 93% 1.1 mph SSE1.8 kmh SSE 3.4 mph5.5 kmh 29.72 in1006.4 mb - 0.00 in0.0 mm 0.00 in0.0 mm
02:05 PM 34.8°F1.6°C 33.0°F0.6°C 93% 1.1 mph SSE1.8 kmh SSE 1.1 mph1.8 kmh 29.72 in1006.4 mb - 0.00 in0.0 mm 0.00 in0.0 mm
02:11 PM 34.3°F1.3°C 32.5°F0.3°C 93% 1.1 mph W1.8 kmh W 4.6 mph7.4 kmh 29.73 in1006.8 mb - 0.00 in0.0 mm 0.00 in0.0 mm
02:16 PM 34.2°F1.2°C 32.7°F0.4°C 94% 1.1 mph SE1.8 kmh SE 2.3 mph3.7 kmh 29.73 in1006.8 mb - 0.00 in0.0 mm 0.00 in0.0 mm
02:22 PM 34.3°F1.3°C 32.8°F0.4°C 94% Calm Calm 1.1 mph1.8 kmh 29.73 in1006.8 mb - 0.00 in0.0 mm 0.00 in0.0 mm
02:28 PM 34.3°F1.3°C 32.8°F0.4°C 94% Calm Calm -- 29.73 in1006.8 mb - 0.00 in0.0 mm 0.00 in0.0 mm
02:33 PM 34.7°F1.5°C 33.2°F0.7°C 94% Calm Calm 1.1 mph1.8 kmh 29.73 in1006.8 mb - 0.00 in0.0 mm 0.00 in0.0 mm
02:39 PM 34.7°F1.5°C 33.2°F0.7°C 94% Calm Calm -- 29.73 in1006.8 mb - 0.00 in0.0 mm 0.00 in0.0 mm
02:45 PM 34.9°F1.6°C 33.3°F0.7°C 94% 1.1 mph SE1.8 kmh SE 2.3 mph3.7 kmh 29.73 in1006.8 mb - 0.00 in0.0 mm 0.00 in0.0 mm
02:50 PM 35.0°F1.7°C 33.2°F0.7°C 93% 2.3 mph SE3.7 kmh SE 4.6 mph7.4 kmh 29.73 in1006.8 mb - 0.00 in0.0 mm 0.00 in0.0 mm
02:56 PM 35.1°F1.7°C 33.3°F0.7°C 93% Calm Calm -- 29.73 in1006.8 mb - 0.00 in0.0 mm 0.00 in0.0 mm
03:01 PM 35.0°F1.7°C 33.2°F0.7°C 93% 1.1 mph SE1.8 kmh SE 3.4 mph5.5 kmh 29.73 in1006.8 mb - 0.00 in0.0 mm 0.00 in0.0 mm
03:07 PM 35.1°F1.7°C 33.0°F0.6°C 92% 1.1 mph S1.8 kmh S 2.3 mph3.7 kmh 29.74 in1007.1 mb - 0.00 in0.0 mm 0.00 in0.0 mm
03:13 PM 35.1°F1.7°C 33.0°F0.6°C 92% 1.1 mph SE1.8 kmh SE 3.4 mph5.5 kmh 29.74 in1007.1 mb - 0.00 in0.0 mm 0.00 in0.0 mm
03:18 PM 35.1°F1.7°C 33.0°F0.6°C 92% 1.1 mph SE1.8 kmh SE 3.4 mph5.5 kmh 29.74 in1007.1 mb - 0.00 in0.0 mm 0.00 in0.0 mm
03:24 PM 35.1°F1.7°C 33.0°F0.6°C 92% 1.1 mph SE1.8 kmh SE 3.4 mph5.5 kmh 29.73 in1006.8 mb - 0.00 in0.0 mm 0.00 in0.0 mm
03:30 PM 35.1°F1.7°C 33.0°F0.6°C 92% 1.1 mph S1.8 kmh S 2.3 mph3.7 kmh 29.73 in1006.8 mb - 0.00 in0.0 mm 0.00 in0.0 mm
03:35 PM 35.0°F1.7°C 32.9°F0.5°C 92% 2.3 mph SE3.7 kmh SE 3.4 mph5.5 kmh 29.73 in1006.8 mb - 0.00 in0.0 mm 0.00 in0.0 mm
03:41 PM 35.0°F1.7°C 32.9°F0.5°C 92% 1.1 mph SE1.8 kmh SE 3.4 mph5.5 kmh 29.73 in1006.8 mb - 0.00 in0.0 mm 0.00 in0.0 mm
03:46 PM 35.0°F1.7°C 32.9°F0.5°C 92% 2.3 mph ESE3.7 kmh ESE 2.3 mph3.7 kmh 29.73 in1006.8 mb - 0.00 in0.0 mm 0.00 in0.0 mm
03:52 PM 35.0°F1.7°C 32.9°F0.5°C 92% Calm Calm 1.1 mph1.8 kmh 29.73 in1006.8 mb - 0.00 in0.0 mm 0.00 in0.0 mm
03:58 PM 34.9°F1.6°C 32.8°F0.4°C 92% Calm Calm 1.1 mph1.8 kmh 29.73 in1006.8 mb - 0.00 in0.0 mm 0.00 in0.0 mm
04:03 PM 34.9°F1.6°C 32.8°F0.4°C 92% Calm Calm 1.1 mph1.8 kmh 29.73 in1006.8 mb - 0.00 in0.0 mm 0.00 in0.0 mm
04:09 PM 34.7°F1.5°C 32.6°F0.3°C 92% Calm Calm 2.3 mph3.7 kmh 29.73 in1006.8 mb - 0.00 in0.0 mm 0.00 in0.0 mm
04:15 PM 34.7°F1.5°C 32.9°F0.5°C 93% Calm Calm 1.1 mph1.8 kmh 29.73 in1006.8 mb - 0.00 in0.0 mm 0.00 in0.0 mm
04:20 PM 34.5°F1.4°C 32.7°F0.4°C 93% 1.1 mph SE1.8 kmh SE 3.4 mph5.5 kmh 29.73 in1006.8 mb - 0.00 in0.0 mm 0.00 in0.0 mm
04:26 PM 34.5°F1.4°C 32.7°F0.4°C 93% 2.3 mph SE3.7 kmh SE 3.4 mph5.5 kmh 29.73 in1006.8 mb - 0.00 in0.0 mm 0.00 in0.0 mm
04:31 PM 34.6°F1.4°C 32.8°F0.4°C 93% Calm Calm 1.1 mph1.8 kmh 29.73 in1006.8 mb - 0.00 in0.0 mm 0.00 in0.0 mm
04:37 PM 34.6°F1.4°C 32.8°F0.4°C 93% 1.1 mph ESE1.8 kmh ESE 2.3 mph3.7 kmh 29.73 in1006.8 mb - 0.00 in0.0 mm 0.00 in0.0 mm
04:43 PM 34.7°F1.5°C 32.9°F0.5°C 93% Calm Calm -- 29.73 in1006.8 mb - 0.00 in0.0 mm 0.00 in0.0 mm
04:48 PM 34.7°F1.5°C 32.9°F0.5°C 93% 1.1 mph SSW1.8 kmh SSW 2.3 mph3.7 kmh 29.74 in1007.1 mb - 0.00 in0.0 mm 0.00 in0.0 mm
04:54 PM 34.8°F1.6°C 33.0°F0.6°C 93% 1.1 mph SE1.8 kmh SE 2.3 mph3.7 kmh 29.73 in1006.8 mb - 0.00 in0.0 mm 0.00 in0.0 mm
05:00 PM 34.7°F1.5°C 32.9°F0.5°C 93% Calm Calm -- 29.74 in1007.1 mb - 0.00 in0.0 mm 0.00 in0.0 mm
05:05 PM 34.8°F1.6°C 33.2°F0.7°C 94% 1.1 mph SSE1.8 kmh SSE 3.4 mph5.5 kmh 29.74 in1007.1 mb - 0.00 in0.0 mm 0.00 in0.0 mm
05:11 PM 35.1°F1.7°C 33.5°F0.8°C 94% 1.1 mph SE1.8 kmh SE 1.1 mph1.8 kmh 29.74 in1007.1 mb - 0.00 in0.0 mm 0.00 in0.0 mm
05:16 PM 35.2°F1.8°C 33.6°F0.9°C 94% 1.1 mph SE1.8 kmh SE 3.4 mph5.5 kmh 29.74 in1007.1 mb - 0.00 in0.0 mm 0.00 in0.0 mm
05:22 PM 35.4°F1.9°C 33.8°F1.0°C 94% 1.1 mph SSW1.8 kmh SSW 2.3 mph3.7 kmh 29.74 in1007.1 mb - 0.00 in0.0 mm 0.00 in0.0 mm
05:28 PM 35.6°F2.0°C 33.8°F1.0°C 93% 2.3 mph SE3.7 kmh SE 3.4 mph5.5 kmh 29.74 in1007.1 mb - 0.00 in0.0 mm 0.00 in0.0 mm
05:33 PM 35.8°F2.1°C 33.9°F1.1°C 93% 2.3 mph SE3.7 kmh SE 4.6 mph7.4 kmh 29.74 in1007.1 mb - 0.00 in0.0 mm 0.00 in0.0 mm
05:39 PM 35.8°F2.1°C 33.7°F0.9°C 92% 2.3 mph S3.7 kmh S 2.3 mph3.7 kmh 29.74 in1007.1 mb - 0.00 in0.0 mm 0.00 in0.0 mm
05:45 PM 35.6°F2.0°C 33.5°F0.8°C 92% 1.1 mph SSE1.8 kmh SSE 3.4 mph5.5 kmh 29.74 in1007.1 mb - 0.00 in0.0 mm 0.00 in0.0 mm
05:50 PM 35.6°F2.0°C 33.5°F0.8°C 92% Calm Calm 2.3 mph3.7 kmh 29.74 in1007.1 mb - 0.00 in0.0 mm 0.00 in0.0 mm
05:56 PM 35.6°F2.0°C 33.5°F0.8°C 92% 1.1 mph NW1.8 kmh NW -- 29.74 in1007.1 mb - 0.00 in0.0 mm 0.00 in0.0 mm
06:01 PM 35.6°F2.0°C 33.8°F1.0°C 93% 2.3 mph SSE3.7 kmh SSE 3.4 mph5.5 kmh 29.74 in1007.1 mb - 0.00 in0.0 mm 0.00 in0.0 mm
06:07 PM 35.6°F2.0°C 33.5°F0.8°C 92% 1.1 mph SSE1.8 kmh SSE 2.3 mph3.7 kmh 29.74 in1007.1 mb - 0.00 in0.0 mm 0.00 in0.0 mm
06:13 PM 35.5°F1.9°C 33.4°F0.8°C 92% 2.3 mph SSE3.7 kmh SSE 4.6 mph7.4 kmh 29.73 in1006.8 mb - 0.00 in0.0 mm 0.00 in0.0 mm
06:18 PM 35.5°F1.9°C 33.7°F0.9°C 93% 2.3 mph SE3.7 kmh SE 3.4 mph5.5 kmh 29.74 in1007.1 mb - 0.00 in0.0 mm 0.00 in0.0 mm
06:24 PM 35.5°F1.9°C 33.7°F0.9°C 93% 2.3 mph SE3.7 kmh SE 3.4 mph5.5 kmh 29.74 in1007.1 mb - 0.00 in0.0 mm 0.00 in0.0 mm
06:30 PM 35.3°F1.8°C 33.5°F0.8°C 93% 1.1 mph SSE1.8 kmh SSE 3.4 mph5.5 kmh 29.73 in1006.8 mb - 0.00 in0.0 mm 0.00 in0.0 mm
06:35 PM 35.2°F1.8°C 33.4°F0.8°C 93% 1.1 mph S1.8 kmh S 1.1 mph1.8 kmh 29.73 in1006.8 mb - 0.00 in0.0 mm 0.00 in0.0 mm
06:41 PM 35.1°F1.7°C 33.3°F0.7°C 93% Calm Calm 1.1 mph1.8 kmh 29.74 in1007.1 mb - 0.00 in0.0 mm 0.00 in0.0 mm
06:46 PM 34.9°F1.6°C 33.1°F0.6°C 93% Calm Calm 1.1 mph1.8 kmh 29.74 in1007.1 mb - 0.00 in0.0 mm 0.00 in0.0 mm
06:52 PM 34.6°F1.4°C 33.1°F0.6°C 94% Calm Calm 1.1 mph1.8 kmh 29.74 in1007.1 mb - 0.00 in0.0 mm 0.00 in0.0 mm
06:58 PM 34.6°F1.4°C 33.1°F0.6°C 94% 1.1 mph SE1.8 kmh SE 2.3 mph3.7 kmh 29.74 in1007.1 mb - 0.00 in0.0 mm 0.00 in0.0 mm
07:03 PM 34.2°F1.2°C 32.6°F0.3°C 94% Calm Calm -- 29.74 in1007.1 mb - 0.00 in0.0 mm 0.00 in0.0 mm
07:09 PM 34.1°F1.2°C 32.9°F0.5°C 95% Calm Calm 1.1 mph1.8 kmh 29.74 in1007.1 mb - 0.00 in0.0 mm 0.00 in0.0 mm
07:15 PM 34.2°F1.2°C 32.9°F0.5°C 95% Calm Calm 1.1 mph1.8 kmh 29.74 in1007.1 mb - 0.00 in0.0 mm 0.00 in0.0 mm
07:20 PM 34.3°F1.3°C 33.0°F0.6°C 95% Calm Calm -- 29.74 in1007.1 mb - 0.00 in0.0 mm 0.00 in0.0 mm
07:26 PM 34.8°F1.6°C 33.8°F1.0°C 96% Calm Calm 1.1 mph1.8 kmh 29.74 in1007.1 mb - 0.00 in0.0 mm 0.00 in0.0 mm
07:31 PM 34.8°F1.6°C 33.5°F0.8°C 95% 1.1 mph SSE1.8 kmh SSE 1.1 mph1.8 kmh 29.74 in1007.1 mb - 0.00 in0.0 mm 0.00 in0.0 mm
07:37 PM 35.0°F1.7°C 33.7°F0.9°C 95% Calm Calm 2.3 mph3.7 kmh 29.74 in1007.1 mb - 0.00 in0.0 mm 0.00 in0.0 mm
07:43 PM 35.1°F1.7°C 33.8°F1.0°C 95% 1.1 mph S1.8 kmh S 3.4 mph5.5 kmh 29.74 in1007.1 mb - 0.00 in0.0 mm 0.00 in0.0 mm
07:48 PM 35.1°F1.7°C 33.8°F1.0°C 95% 1.1 mph SSE1.8 kmh SSE -- 29.74 in1007.1 mb - 0.00 in0.0 mm 0.00 in0.0 mm
07:54 PM 35.2°F1.8°C 34.2°F1.2°C 96% 1.1 mph S1.8 kmh S -- 29.75 in1007.5 mb - 0.00 in0.0 mm 0.00 in0.0 mm
08:00 PM 35.1°F1.7°C 33.8°F1.0°C 95% Calm Calm 1.1 mph1.8 kmh 29.75 in1007.5 mb - 0.00 in0.0 mm 0.00 in0.0 mm
08:05 PM 35.0°F1.7°C 33.7°F0.9°C 95% Calm Calm 1.1 mph1.8 kmh 29.75 in1007.5 mb - 0.00 in0.0 mm 0.00 in0.0 mm
08:11 PM 34.9°F1.6°C 33.6°F0.9°C 95% 1.1 mph S1.8 kmh S 3.4 mph5.5 kmh 29.75 in1007.5 mb - 0.00 in0.0 mm 0.00 in0.0 mm
08:16 PM 34.8°F1.6°C 33.5°F0.8°C 95% Calm Calm -- 29.75 in1007.5 mb - 0.00 in0.0 mm 0.00 in0.0 mm
08:22 PM 34.0°F1.1°C 32.8°F0.4°C 95% Calm Calm -- 29.75 in1007.5 mb - 0.00 in0.0 mm 0.00 in0.0 mm
08:28 PM 34.0°F1.1°C 32.7°F0.4°C 95% Calm Calm 1.1 mph1.8 kmh 29.75 in1007.5 mb - 0.00 in0.0 mm 0.00 in0.0 mm
08:33 PM 33.6°F0.9°C 32.3°F0.2°C 95% Calm Calm 1.1 mph1.8 kmh 29.75 in1007.5 mb - 0.00 in0.0 mm 0.00 in0.0 mm
08:39 PM 33.4°F0.8°C 32.2°F0.1°C 95% Calm Calm -- 29.75 in1007.5 mb - 0.00 in0.0 mm 0.00 in0.0 mm
08:45 PM 33.3°F0.7°C 32.3°F0.2°C 96% Calm Calm 1.1 mph1.8 kmh 29.75 in1007.5 mb - 0.00 in0.0 mm 0.00 in0.0 mm
08:50 PM 33.1°F0.6°C 32.1°F0.1°C 96% Calm Calm -- 29.75 in1007.5 mb - 0.00 in0.0 mm 0.00 in0.0 mm
08:56 PM 32.5°F0.3°C 31.5°F-0.3°C 96% Calm Calm 1.1 mph1.8 kmh 29.75 in1007.5 mb - 0.00 in0.0 mm 0.00 in0.0 mm
09:01 PM 32.6°F0.3°C 31.6°F-0.2°C 96% Calm Calm -- 29.75 in1007.5 mb - 0.00 in0.0 mm 0.00 in0.0 mm
09:07 PM 32.5°F0.3°C 31.5°F-0.3°C 96% Calm Calm 1.1 mph1.8 kmh 29.75 in1007.5 mb - 0.00 in0.0 mm 0.00 in0.0 mm
09:13 PM 32.5°F0.3°C 31.5°F-0.3°C 96% Calm Calm 1.1 mph1.8 kmh 29.75 in1007.5 mb - 0.00 in0.0 mm 0.00 in0.0 mm
09:18 PM 32.4°F0.2°C 31.6°F-0.2°C 97% Calm Calm -- 29.75 in1007.5 mb - 0.00 in0.0 mm 0.00 in0.0 mm
09:24 PM 32.4°F0.2°C 31.6°F-0.2°C 97% Calm Calm 1.1 mph1.8 kmh 29.75 in1007.5 mb - 0.00 in0.0 mm 0.00 in0.0 mm
09:30 PM 32.1°F0.1°C 31.4°F-0.3°C 97% Calm Calm -- 29.75 in1007.5 mb - 0.00 in0.0 mm 0.00 in0.0 mm
09:35 PM 32.1°F0.1°C 31.3°F-0.4°C 97% Calm Calm -- 29.75 in1007.5 mb - 0.00 in0.0 mm 0.00 in0.0 mm
09:41 PM 32.1°F0.1°C 31.3°F-0.4°C 97% Calm Calm -- 29.75 in1007.5 mb - 0.00 in0.0 mm 0.00 in0.0 mm
09:46 PM 32.0°F0.0°C 31.3°F-0.4°C 97% Calm Calm -- 29.75 in1007.5 mb - 0.00 in0.0 mm 0.00 in0.0 mm
09:52 PM 31.9°F-0.1°C 31.1°F-0.5°C 97% Calm Calm -- 29.75 in1007.5 mb - 0.00 in0.0 mm 0.00 in0.0 mm
09:58 PM 31.8°F-0.1°C 31.0°F-0.6°C 97% Calm Calm -- 29.76 in1007.8 mb - 0.00 in0.0 mm 0.00 in0.0 mm
10:03 PM 32.4°F0.2°C 31.6°F-0.2°C 97% 1.1 mph ESE1.8 kmh ESE 1.1 mph1.8 kmh 29.76 in1007.8 mb - 0.00 in0.0 mm 0.00 in0.0 mm
10:09 PM 32.5°F0.3°C 32.0°F0.0°C 98% Calm Calm 1.1 mph1.8 kmh 29.76 in1007.8 mb - 0.00 in0.0 mm 0.00 in0.0 mm
10:15 PM 33.1°F0.6°C 32.6°F0.3°C 98% Calm Calm 2.3 mph3.7 kmh 29.76 in1007.8 mb - 0.00 in0.0 mm 0.00 in0.0 mm
10:20 PM 33.1°F0.6°C 32.6°F0.3°C 98% 1.1 mph SW1.8 kmh SW 2.3 mph3.7 kmh 29.76 in1007.8 mb - 0.00 in0.0 mm 0.00 in0.0 mm
10:26 PM 33.7°F0.9°C 33.2°F0.7°C 98% 1.1 mph S1.8 kmh S 3.4 mph5.5 kmh 29.76 in1007.8 mb - 0.00 in0.0 mm 0.00 in0.0 mm
10:31 PM 34.1°F1.2°C 33.6°F0.9°C 98% 1.1 mph SE1.8 kmh SE 1.1 mph1.8 kmh 29.76 in1007.8 mb - 0.00 in0.0 mm 0.00 in0.0 mm
10:37 PM 34.8°F1.6°C 34.3°F1.3°C 98% 1.1 mph ESE1.8 kmh ESE 3.4 mph5.5 kmh 29.75 in1007.5 mb - 0.00 in0.0 mm 0.00 in0.0 mm
10:43 PM 34.9°F1.6°C 34.4°F1.3°C 98% 1.1 mph ESE1.8 kmh ESE 3.4 mph5.5 kmh 29.75 in1007.5 mb - 0.00 in0.0 mm 0.00 in0.0 mm
10:48 PM 35.4°F1.9°C 34.6°F1.4°C 97% 2.3 mph SE3.7 kmh SE 4.6 mph7.4 kmh 29.75 in1007.5 mb - 0.00 in0.0 mm 0.00 in0.0 mm
10:54 PM 35.5°F1.9°C 34.7°F1.5°C 97% 2.3 mph SSW3.7 kmh SSW 2.3 mph3.7 kmh 29.76 in1007.8 mb - 0.00 in0.0 mm 0.00 in0.0 mm
11:00 PM 35.7°F2.1°C 34.7°F1.5°C 96% 2.3 mph S3.7 kmh S 3.4 mph5.5 kmh 29.76 in1007.8 mb - 0.00 in0.0 mm 0.00 in0.0 mm
11:05 PM 35.9°F2.2°C 34.6°F1.4°C 95% 1.1 mph ESE1.8 kmh ESE 1.1 mph1.8 kmh 29.76 in1007.8 mb - 0.00 in0.0 mm 0.00 in0.0 mm
11:11 PM 36.0°F2.2°C 34.7°F1.5°C 95% 2.3 mph SW3.7 kmh SW 2.3 mph3.7 kmh 29.76 in1007.8 mb - 0.00 in0.0 mm 0.00 in0.0 mm
11:16 PM 35.9°F2.2°C 34.4°F1.3°C 94% 1.1 mph ESE1.8 kmh ESE 3.4 mph5.5 kmh 29.76 in1007.8 mb - 0.00 in0.0 mm 0.00 in0.0 mm
11:22 PM 36.1°F2.3°C 34.5°F1.4°C 94% 2.3 mph SE3.7 kmh SE 4.6 mph7.4 kmh 29.77 in1008.1 mb - 0.00 in0.0 mm 0.00 in0.0 mm
11:28 PM 36.1°F2.3°C 34.5°F1.4°C 94% 1.1 mph SSE1.8 kmh SSE 3.4 mph5.5 kmh 29.77 in1008.1 mb - 0.00 in0.0 mm 0.00 in0.0 mm
11:33 PM 36.2°F2.3°C 34.6°F1.4°C 94% 1.1 mph S1.8 kmh S 3.4 mph5.5 kmh 29.77 in1008.1 mb - 0.00 in0.0 mm 0.00 in0.0 mm
11:39 PM 36.1°F2.3°C 34.5°F1.4°C 94% 3.4 mph SE5.5 kmh SE 8.0 mph12.9 kmh 29.77 in1008.1 mb - 0.00 in0.0 mm 0.00 in0.0 mm
11:45 PM 36.2°F2.3°C 34.6°F1.4°C 94% 1.1 mph SE1.8 kmh SE 3.4 mph5.5 kmh 29.77 in1008.1 mb - 0.00 in0.0 mm 0.00 in0.0 mm
11:50 PM 36.3°F2.4°C 34.7°F1.5°C 94% 2.3 mph SE3.7 kmh SE 4.6 mph7.4 kmh 29.77 in1008.1 mb - 0.00 in0.0 mm 0.00 in0.0 mm
11:56 PM 36.4°F2.4°C 34.8°F1.6°C 94% 2.3 mph SE3.7 kmh SE 3.4 mph5.5 kmh 29.77 in1008.1 mb - 0.00 in0.0 mm 0.00 in0.0 mm